Time;durP1;ratioP1;P1;durP2;ratioP2;P2;SDS_P1;SDS_P2;PMS_P1;PMS_P2;Temp;Humidity;BMP_temperature;BMP_pressure;BME280_temperature;BME280_humidity;BME280_pressure;Samples;Min_cycle;Max_cycle;Signal;HPM_P1;HPM_P2
2022/09/21 00:01:31;;;;;;;4.80;3.47;;;;;;;11.79;100.00;102530.22;5262623;28;19939;-72
2022/09/21 00:04:03;;;;;;;6.00;3.58;;;;;;;11.69;100.00;102524.69;5262906;28;20032;-72
2022/09/21 00:06:34;;;;;;;6.15;3.38;;;;;;;11.58;100.00;102538.47;5264445;28;20035;-72
2022/09/21 00:09:09;;;;;;;7.32;3.80;;;;;;;11.52;100.00;102532.78;5261452;28;20033;-72
2022/09/21 00:11:41;;;;;;;5.20;3.33;;;;;;;11.49;100.00;102535.59;5262322;28;20096;-72
2022/09/21 00:14:13;;;;;;;5.13;3.95;;;;;;;11.41;100.00;102525.56;5268042;28;20116;-72
2022/09/21 00:16:44;;;;;;;6.73;3.30;;;;;;;11.43;100.00;102539.41;5260333;28;20036;-72
2022/09/21 00:19:16;;;;;;;6.32;3.30;;;;;;;11.37;100.00;102535.41;5268893;28;20485;-75
2022/09/21 00:21:48;;;;;;;7.28;3.72;;;;;;;11.23;100.00;102532.75;5258808;28;20052;-72
2022/09/21 00:24:19;;;;;;;4.93;3.55;;;;;;;11.23;100.00;102539.78;5268332;28;20072;-72
2022/09/21 00:26:51;;;;;;;6.25;3.28;;;;;;;11.15;100.00;102537.63;5260179;28;20024;-72
2022/09/21 00:29:22;;;;;;;5.78;3.88;;;;;;;11.12;100.00;102535.19;5264426;28;20374;-72
2022/09/21 00:31:53;;;;;;;5.60;3.22;;;;;;;11.11;100.00;102533.50;5265112;28;20116;-72
2022/09/21 00:34:26;;;;;;;4.22;3.03;;;;;;;11.07;100.00;102535.47;5263766;28;20040;-72
2022/09/21 00:36:57;;;;;;;7.15;3.53;;;;;;;11.03;100.00;102541.84;5262421;28;20108;-72
2022/09/21 00:39:28;;;;;;;5.95;3.60;;;;;;;11.00;100.00;102542.00;5262039;28;20119;-72
2022/09/21 00:42:00;;;;;;;5.30;3.53;;;;;;;11.01;100.00;102538.44;5262513;28;20036;-72
2022/09/21 00:44:32;;;;;;;5.68;3.28;;;;;;;11.03;100.00;102541.00;5266832;28;20358;-72
2022/09/21 00:47:10;;;;;;;6.50;3.30;;;;;;;11.10;100.00;102537.91;5263882;28;20115;-72
2022/09/21 00:49:48;;;;;;;6.93;3.40;;;;;;;11.00;100.00;102535.94;5259928;28;20025;-72
2022/09/21 00:52:23;;;;;;;6.75;3.50;;;;;;;11.02;100.00;102545.38;5264978;28;20044;-72
2022/09/21 00:54:59;;;;;;;5.25;3.13;;;;;;;11.02;100.00;102542.75;5266758;28;20601;-72
2022/09/21 00:57:31;;;;;;;4.90;3.22;;;;;;;10.95;100.00;102537.06;5261095;28;20056;-72
2022/09/21 01:00:09;;;;;;;4.27;3.10;;;;;;;11.05;100.00;102536.50;5262174;28;20246;-72
2022/09/21 01:02:41;;;;;;;4.60;3.30;;;;;;;10.96;100.00;102541.34;5265459;28;20051;-72
2022/09/21 01:05:12;;;;;;;6.78;3.33;;;;;;;10.96;100.00;102536.09;5259635;28;20036;-74
2022/09/21 01:07:46;;;;;;;5.63;3.00;;;;;;;11.01;100.00;102538.44;5265360;28;20119;-72
2022/09/21 01:10:18;;;;;;;5.00;3.30;;;;;;;10.95;100.00;102539.69;5265093;28;20025;-72
2022/09/21 01:13:12;;;;;;;6.88;3.17;;;;;;;11.23;100.00;102537.19;5265870;28;20032;-72
2022/09/21 01:15:49;;;;;;;5.43;3.28;;;;;;;11.11;100.00;102538.75;5262559;28;20039;-72
2022/09/21 01:18:26;;;;;;;4.50;3.20;;;;;;;11.08;100.00;102533.69;5259512;28;20449;-72
2022/09/21 01:21:25;;;;;;;6.13;3.28;;;;;;;11.19;100.00;102534.72;5262259;28;20398;-72
2022/09/21 01:24:08;;;;;;;5.00;3.38;;;;;;;11.11;100.00;102539.59;5265883;28;20072;-72
2022/09/21 01:26:59;;;;;;;6.68;3.17;;;;;;;11.13;100.00;102536.88;5259020;28;20108;-72
2022/09/21 01:29:43;;;;;;;6.00;3.28;;;;;;;11.01;100.00;102535.00;5264810;28;20021;-72
2022/09/21 01:32:35;;;;;;;4.75;2.90;;;;;;;11.20;100.00;102540.81;5261541;28;20040;-72
2022/09/21 01:35:21;;;;;;;5.88;3.15;;;;;;;11.11;100.00;102536.97;5268922;28;20025;-72
2022/09/21 01:37:56;;;;;;;9.55;3.15;;;;;;;10.89;100.00;102540.03;5272591;28;20508;-72
2022/09/21 01:40:36;;;;;;;6.22;3.22;;;;;;;10.99;100.00;102531.63;5266538;28;20032;-72
2022/09/21 01:43:13;;;;;;;6.55;3.55;;;;;;;10.87;100.00;102526.19;5266447;28;20063;-72
2022/09/21 01:45:49;;;;;;;6.57;3.42;;;;;;;10.89;100.00;102532.16;5266712;28;20040;-72
2022/09/21 01:48:23;;;;;;;7.25;3.50;;;;;;;10.89;100.00;102533.94;5266580;28;20021;-72
2022/09/21 01:50:58;;;;;;;7.03;3.13;;;;;;;10.91;100.00;102532.94;5269711;28;20108;-72
2022/09/21 01:53:39;;;;;;;5.55;3.15;;;;;;;10.99;100.00;102524.59;5267597;28;20029;-72
2022/09/21 01:56:26;;;;;;;5.22;3.00;;;;;;;11.08;100.00;102538.94;5264571;28;20033;-72
2022/09/21 01:59:36;;;;;;;4.45;3.17;;;;;;;11.27;100.00;102530.81;5265959;28;20662;-72
2022/09/21 02:02:14;;;;;;;8.45;3.83;;;;;;;10.91;100.00;102532.06;5186935;28;20034;-72
2022/09/21 02:04:45;;;;;;;5.53;3.30;;;;;;;10.85;100.00;102528.03;5191955;28;20050;-72
2022/09/21 02:07:17;;;;;;;5.10;3.22;;;;;;;10.81;100.00;102526.53;5235896;28;20037;-72
2022/09/21 02:09:49;;;;;;;6.93;3.08;;;;;;;10.87;100.00;102533.16;5265511;28;20037;-72
2022/09/21 02:12:21;;;;;;;4.57;3.25;;;;;;;10.87;100.00;102541.03;5272462;28;20501;-72
2022/09/21 02:14:54;;;;;;;4.00;3.22;;;;;;;10.84;100.00;102536.84;5270434;28;20035;-72
2022/09/21 02:17:46;;;;;;;6.53;3.08;;;;;;;11.01;100.00;102530.59;5256592;28;20710;-72
2022/09/21 02:20:35;;;;;;;5.78;3.60;;;;;;;10.96;100.00;102537.91;5267507;28;20047;-71
2022/09/21 02:23:21;;;;;;;6.55;3.10;;;;;;;10.85;100.00;102532.44;5263401;28;20024;-71
2022/09/21 02:26:06;;;;;;;5.88;3.15;;;;;;;10.85;100.00;102528.03;5260804;28;20036;-71
2022/09/21 02:28:51;;;;;;;8.45;3.50;;;;;;;10.82;100.00;102527.38;5264311;28;20487;-71
2022/09/21 02:31:48;;;;;;;4.22;3.45;;;;;;;10.80;100.00;102534.50;5266348;28;20052;-71
2022/09/21 02:35:08;;;;;;;6.78;3.13;;;;;;;10.80;100.00;102534.50;5269857;28;20028;-71
2022/09/21 02:37:47;;;;;;;5.25;3.20;;;;;;;10.55;100.00;102530.66;5245458;28;20053;-71
2022/09/21 02:40:30;;;;;;;4.78;3.15;;;;;;;10.58;100.00;102529.66;5261540;28;20046;-71
2022/09/21 02:43:08;;;;;;;;;;;;;;;11.08;100.00;102533.69;5261371;28;20592;-71
2022/09/21 02:45:50;;;;;;;6.32;3.10;;;;;;;10.48;100.00;102524.09;5269822;28;19920;-71
2022/09/21 02:48:29;;;;;;;6.43;3.20;;;;;;;10.38;100.00;102531.66;5263992;28;20029;-71
2022/09/21 02:51:09;;;;;;;5.45;2.95;;;;;;;10.33;100.00;102524.97;5265611;28;20033;-71
2022/09/21 02:53:42;;;;;;;6.00;3.17;;;;;;;10.19;100.00;102531.81;5275514;28;20036;-71
2022/09/21 02:56:14;;;;;;;7.22;3.03;;;;;;;10.11;100.00;102517.44;5276785;28;20043;-71
2022/09/21 02:58:53;;;;;;;4.97;3.10;;;;;;;10.22;100.00;102530.78;5273997;28;20493;-71
2022/09/21 03:01:25;;;;;;;5.50;2.97;;;;;;;10.10;100.00;102524.44;5262634;28;20505;-71
2022/09/21 03:03:57;;;;;;;4.68;2.83;;;;;;;10.08;100.00;102533.34;5263561;28;20039;-71
2022/09/21 03:06:28;;;;;;;8.52;2.90;;;;;;;10.03;100.00;102533.56;5262151;28;20033;-71
2022/09/21 03:09:00;;;;;;;4.13;2.53;;;;;;;10.06;100.00;102540.44;5257306;28;20064;-71
2022/09/21 03:11:32;;;;;;;5.15;2.90;;;;;;;9.98;100.00;102528.59;5262624;28;20553;-71
2022/09/21 03:14:07;;;;;;;4.80;2.70;;;;;;;10.02;100.00;102541.53;5267271;28;20039;-71
2022/09/21 03:16:38;;;;;;;3.70;2.40;;;;;;;9.99;100.00;102534.69;5254876;28;20036;-71
2022/09/21 03:19:11;;;;;;;3.33;2.42;;;;;;;10.03;100.00;102527.50;5264378;28;20398;-71
2022/09/21 03:21:42;;;;;;;3.92;2.70;;;;;;;10.02;100.00;102542.38;5264881;28;20032;-71
2022/09/21 03:24:44;;;;;;;7.32;2.78;;;;;;;9.97;100.00;102537.41;5260824;28;20115;-71
2022/09/21 03:27:04;;;;;;;3.35;2.40;;;;;;;9.91;100.00;102542.13;5257101;28;20449;-71
2022/09/21 03:29:36;;;;;;;4.72;2.92;;;;;;;9.91;100.00;102537.72;5263209;28;20243;-71
2022/09/21 03:32:07;;;;;;;3.95;2.42;;;;;;;9.88;100.00;102537.88;5267222;28;20016;-71
2022/09/21 03:34:39;;;;;;;5.43;2.70;;;;;;;9.88;100.00;102550.97;5263107;28;20569;-71
2022/09/21 03:37:11;;;;;;;4.10;2.80;;;;;;;9.84;100.00;102548.59;5266442;28;20028;-71
2022/09/21 03:39:42;;;;;;;3.80;2.45;;;;;;;9.81;100.00;102546.16;5264376;28;20025;-71
2022/09/21 03:42:13;;;;;;;4.10;2.42;;;;;;;9.72;100.00;102544.88;5261750;28;20021;-71
2022/09/21 03:44:44;;;;;;;5.45;3.00;;;;;;;9.71;100.00;102556.28;5267966;28;20047;-71
2022/09/21 03:47:16;;;;;;;4.97;2.58;;;;;;;9.65;100.00;102554.00;5268412;28;20041;-71
2022/09/21 03:49:47;;;;;;;3.83;2.47;;;;;;;9.63;100.00;102556.69;5264832;28;20024;-71
2022/09/21 03:52:18;;;;;;;3.85;2.50;;;;;;;9.60;100.00;102556.03;5267727;28;20029;-71
2022/09/21 03:54:50;;;;;;;5.43;3.15;;;;;;;9.58;100.00;102552.63;5260382;28;20097;-71
2022/09/21 03:57:21;;;;;;;4.28;2.58;;;;;;;9.56;100.00;102557.94;5259879;28;20035;-71
2022/09/21 03:59:53;;;;;;;4.38;2.50;;;;;;;9.59;100.00;102557.78;5261519;28;20056;-71
2022/09/21 04:02:24;;;;;;;5.20;2.58;;;;;;;9.56;100.00;102555.34;5259635;28;20029;-71
2022/09/21 04:04:55;;;;;;;4.80;2.80;;;;;;;9.56;100.00;102555.34;5260562;28;20037;-71
2022/09/21 04:07:33;;;;;;;5.32;2.35;;;;;;;9.63;100.00;102558.47;5262107;28;20032;-71
2022/09/21 04:10:06;;;;;;;4.10;2.80;;;;;;;9.46;100.00;102548.88;5266242;28;20025;-71
2022/09/21 04:12:38;;;;;;;10.00;3.28;;;;;;;9.52;100.00;102560.81;5260848;28;20028;-71
2022/09/21 04:15:16;;;;;;;9.93;3.28;;;;;;;9.52;100.00;102555.59;5259016;28;20033;-71
2022/09/21 04:17:52;;;;;;;5.60;2.70;;;;;;;9.55;100.00;102547.59;5265880;28;20478;-71
2022/09/21 04:20:23;;;;;;;6.00;2.72;;;;;;;9.45;100.00;102540.19;5259951;28;20045;-71
2022/09/21 04:22:55;;;;;;;3.90;2.90;;;;;;;9.53;100.00;102560.72;5259249;28;20051;-71
2022/09/21 04:25:26;;;;;;;4.70;2.58;;;;;;;9.46;100.00;102554.13;5263476;28;20035;-71
2022/09/21 04:27:58;;;;;;;6.28;2.78;;;;;;;9.41;100.00;102551.75;5263599;28;20060;-71
2022/09/21 04:30:29;;;;;;;4.32;3.22;;;;;;;9.39;100.00;102558.81;5258549;28;20458;-71
2022/09/21 04:33:00;;;;;;;5.63;2.97;;;;;;;9.39;100.00;102557.97;5268216;28;20473;-71
2022/09/21 04:35:31;;;;;;;5.00;3.17;;;;;;;9.36;100.00;102555.56;5262565;28;20033;-71
2022/09/21 04:38:03;;;;;;;5.30;2.85;;;;;;;9.34;100.00;102560.00;5266556;28;20381;-71
2022/09/21 04:40:34;;;;;;;5.88;3.25;;;;;;;9.34;100.00;102558.22;5260540;28;20032;-71
2022/09/21 04:43:06;;;;;;;7.05;2.50;;;;;;;9.34;100.00;102560.00;5267342;28;20087;-71
2022/09/21 04:45:38;;;;;;;5.03;3.17;;;;;;;9.33;100.00;102559.16;5272902;28;20086;-71
2022/09/21 04:48:09;;;;;;;6.53;3.05;;;;;;;9.34;100.00;102560.84;5264103;28;20028;-71
2022/09/21 04:50:40;;;;;;;4.28;2.85;;;;;;;9.32;100.00;102564.47;5266012;28;20551;-71
2022/09/21 04:53:12;;;;;;;6.05;2.88;;;;;;;9.25;100.00;102559.56;5262999;28;20059;-71
2022/09/21 04:55:45;;;;;;;5.18;2.80;;;;;;;9.24;100.00;102568.34;5258432;28;20490;-71
2022/09/21 04:58:16;;;;;;;3.80;2.92;;;;;;;9.25;100.00;102569.19;5268021;28;20017;-71
2022/09/21 05:00:50;;;;;;;6.13;3.20;;;;;;;9.19;100.00;102557.25;5263161;28;20040;-71
2022/09/21 05:03:23;;;;;;;8.27;3.40;;;;;;;9.19;100.00;102572.09;5266650;28;20025;-71
2022/09/21 05:05:56;;;;;;;5.10;2.88;;;;;;;9.16;100.00;102567.88;5260741;28;20032;-71
2022/09/21 05:11:18;;;;;;;5.15;2.88;;;;;;;9.19;100.00;102564.25;5264927;28;20025;-71
2022/09/21 05:13:49;;;;;;;5.60;2.85;;;;;;;9.15;100.00;102575.81;5272980;28;20037;-71
2022/09/21 05:16:20;;;;;;;6.65;3.10;;;;;;;9.13;100.00;102562.81;5275515;28;20428;-71
2022/09/21 05:18:55;;;;;;;6.40;3.08;;;;;;;9.17;100.00;102568.75;5274092;28;20028;-71
2022/09/21 05:21:27;;;;;;;5.38;2.90;;;;;;;9.16;100.00;102574.88;5271827;28;20407;-71
2022/09/21 05:23:58;;;;;;;5.40;2.53;;;;;;;9.11;100.00;102577.72;5272148;28;20276;-71
2022/09/21 05:26:29;;;;;;;5.70;3.20;;;;;;;9.10;100.00;102576.03;5262201;28;20059;-71
2022/09/21 05:29:01;;;;;;;5.40;3.00;;;;;;;9.10;100.00;102583.03;5267402;28;20055;-71
2022/09/21 05:31:54;;;;;;;4.85;3.13;;;;;;;9.32;100.00;102581.03;5267064;28;20032;-71
2022/09/21 05:34:37;;;;;;;6.95;3.10;;;;;;;9.24;100.00;102580.53;5268280;28;20417;-71
2022/09/21 05:37:37;;;;;;;5.13;3.15;;;;;;;9.23;100.00;102582.31;5267780;28;20123;-72
2022/09/21 05:40:10;;;;;;;5.00;3.30;;;;;;;9.01;100.00;102582.56;5271764;28;20627;-72
2022/09/21 05:42:42;;;;;;;5.88;2.63;;;;;;;9.07;100.00;102593.66;5271296;28;20409;-71
2022/09/21 05:45:16;;;;;;;8.88;3.63;;;;;;;9.04;100.00;102599.03;5270140;28;20033;-71
2022/09/21 05:48:15;;;;;;;4.03;2.97;;;;;;;9.29;100.00;102590.78;5264599;28;20037;-71
2022/09/21 05:51:03;;;;;;;5.28;3.13;;;;;;;9.23;100.00;102591.94;5263910;28;20017;-71
2022/09/21 05:53:42;;;;;;;6.78;3.15;;;;;;;9.20;100.00;102600.78;5262416;28;20064;-71
2022/09/21 05:56:23;;;;;;;7.93;3.00;;;;;;;9.17;100.00;102597.50;5270517;28;20028;-71
2022/09/21 05:59:20;;;;;;;4.85;3.03;;;;;;;9.41;100.00;102606.69;5266296;28;20058;-71
2022/09/21 06:02:19;;;;;;;8.90;2.78;;;;;;;9.27;100.00;102603.94;5230935;28;20029;-71
2022/09/21 06:04:53;;;;;;;7.75;3.20;;;;;;;9.16;100.00;102598.41;5268936;28;20043;-71
2022/09/21 06:07:24;;;;;;;;;;;;;;;9.78;100.00;102604.78;5269541;28;20024;-71
2022/09/21 06:09:55;;;;;;;5.00;2.50;;;;;;;9.26;100.00;102605.72;5265940;28;19958;-71
2022/09/21 06:12:26;;;;;;;6.88;3.08;;;;;;;9.21;100.00;102604.25;5268969;28;20329;-72
2022/09/21 06:14:58;;;;;;;3.72;3.05;;;;;;;9.22;100.00;102603.34;5269257;28;20101;-71
2022/09/21 06:17:29;;;;;;;6.90;4.10;;;;;;;9.25;100.00;102608.41;5272259;28;20028;-71
2022/09/21 06:20:02;;;;;;;4.93;4.03;;;;;;;9.27;100.00;102606.56;5265283;28;20053;-71
2022/09/21 06:22:33;;;;;;;9.93;3.67;;;;;;;9.30;100.00;102611.63;5267611;28;20050;-72
2022/09/21 06:25:05;;;;;;;7.07;4.25;;;;;;;9.31;100.00;102615.09;5247313;28;20055;-71
2022/09/21 06:27:36;;;;;;;7.18;4.55;;;;;;;9.33;100.00;102614.09;5266366;28;20025;-72
2022/09/21 06:30:08;;;;;;;10.60;4.78;;;;;;;9.37;100.00;102620.00;5264881;28;20445;-72
2022/09/21 06:32:39;;;;;;;8.45;4.93;;;;;;;9.46;100.00;102614.28;5265248;28;20513;-71
2022/09/21 06:35:11;;;;;;;9.30;6.35;;;;;;;9.49;100.00;102611.53;5264319;28;20442;-71
2022/09/21 06:37:42;;;;;;;15.25;8.05;;;;;;;9.56;100.00;102599.81;5261946;28;20041;-71
2022/09/21 06:40:14;;;;;;;11.45;6.95;;;;;;;9.70;100.00;102612.19;5247575;28;20036;-72
2022/09/21 06:42:45;;;;;;;12.68;7.70;;;;;;;9.83;100.00;102620.22;5258624;28;20024;-71
2022/09/21 06:45:16;;;;;;;15.02;8.77;;;;;;;9.86;100.00;102612.22;5260238;28;20021;-71
2022/09/21 06:47:47;;;;;;;13.73;8.77;;;;;;;9.89;100.00;102605.03;5263139;28;20413;-71
2022/09/21 06:50:19;;;;;;;14.82;9.02;;;;;;;10.06;100.00;102613.75;5264403;28;20028;-71
2022/09/21 06:52:50;;;;;;;14.50;8.52;;;;;;;10.14;100.00;102619.41;5262829;28;20033;-72
2022/09/21 06:55:22;;;;;;;11.35;9.05;;;;;;;10.28;100.00;102611.69;5263280;28;20052;-71
2022/09/21 06:57:58;;;;;;;13.20;8.40;;;;;;;10.45;100.00;102608.97;5264427;28;20029;-72
2022/09/21 07:00:30;;;;;;;13.00;8.38;;;;;;;10.41;100.00;102609.22;5261247;28;20025;-72
2022/09/21 07:03:02;;;;;;;18.33;8.90;;;;;;;10.60;100.00;102616.88;5262989;28;20036;-72
2022/09/21 07:05:33;;;;;;;14.43;8.68;;;;;;;10.63;100.00;102611.47;5261118;28;20131;-71
2022/09/21 07:08:05;;;;;;;13.07;7.88;;;;;;;10.77;100.00;102619.41;5263307;28;20654;-70
2022/09/21 07:10:36;;;;;;;12.20;7.88;;;;;;;10.85;100.00;102613.72;5257979;28;20028;-71
2022/09/21 07:13:09;;;;;;;11.13;7.38;;;;;;;11.01;100.00;102613.66;5263120;28;20727;-72
2022/09/21 07:15:40;;;;;;;9.98;6.72;;;;;;;11.13;100.00;102620.81;5259810;28;20120;-72
2022/09/21 07:18:12;;;;;;;12.38;7.50;;;;;;;11.20;100.00;102601.16;5261322;28;20107;-72
2022/09/21 07:20:44;;;;;;;11.20;7.22;;;;;;;11.47;100.00;102603.91;5253297;28;20040;-72
2022/09/21 07:23:17;;;;;;;11.10;7.10;;;;;;;11.49;100.00;102616.94;5260850;28;20072;-72
2022/09/21 07:25:51;;;;;;;;;;;;;;;12.02;100.00;102618.09;5261403;28;20029;-72
2022/09/21 07:28:22;;;;;;;8.38;6.50;;;;;;;11.75;100.00;102616.22;5259086;28;19912;-72
2022/09/21 07:30:54;;;;;;;10.88;6.97;;;;;;;11.80;100.00;102598.38;5257351;28;20029;-72
2022/09/21 07:33:25;;;;;;;7.97;6.75;;;;;;;11.88;100.00;102605.81;5281229;28;20085;-72
2022/09/21 07:35:56;;;;;;;9.95;6.88;;;;;;;11.99;100.00;102605.97;5258227;28;20027;-72
2022/09/21 07:38:28;;;;;;;11.60;6.57;;;;;;;12.09;100.00;102607.09;5259413;28;20025;-72
2022/09/21 07:41:01;;;;;;;10.95;6.40;;;;;;;12.16;100.00;102613.66;5262023;28;20115;-72
2022/09/21 07:43:33;;;;;;;8.57;6.05;;;;;;;12.28;100.00;102613.81;5260960;28;20035;-72
2022/09/21 07:46:10;;;;;;;10.23;6.10;;;;;;;12.39;100.00;102611.34;5259801;28;20412;-72
2022/09/21 07:48:42;;;;;;;8.88;5.63;;;;;;;12.40;100.00;102608.63;5267731;28;20032;-72
2022/09/21 07:51:14;;;;;;;7.28;5.45;;;;;;;12.60;100.00;102609.09;5259418;28;20021;-72
2022/09/21 07:53:46;;;;;;;8.95;5.30;;;;;;;12.72;100.00;102600.41;5259772;28;20029;-72
2022/09/21 07:56:17;;;;;;;9.73;4.90;;;;;;;12.83;100.00;102611.06;5260603;28;20476;-72
2022/09/21 07:59:07;;;;;;;10.88;4.75;;;;;;;12.92;100.00;102604.38;5263078;28;20512;-72
2022/09/21 08:01:40;;;;;;;8.43;4.10;;;;;;;13.02;100.00;102602.78;5264959;28;20029;-72
2022/09/21 08:04:11;;;;;;;6.93;3.63;;;;;;;13.06;100.00;102606.06;5269211;28;20461;-72
2022/09/21 08:06:43;;;;;;;7.88;3.88;;;;;;;13.19;100.00;102606.09;5260865;28;20049;-72
2022/09/21 08:09:14;;;;;;;8.30;3.67;;;;;;;13.29;100.00;102602.72;5253173;28;20029;-72
2022/09/21 08:11:46;;;;;;;11.05;4.25;;;;;;;13.37;100.00;102602.22;5261302;28;20021;-72
2022/09/21 08:14:20;;;;;;;6.85;3.75;;;;;;;13.44;100.00;102592.09;5261168;28;20552;-72
2022/09/21 08:16:52;;;;;;;9.20;3.88;;;;;;;13.51;100.00;102604.75;5263552;28;20036;-72
2022/09/21 08:19:26;;;;;;;7.30;2.92;;;;;;;13.66;100.00;102602.00;5261025;28;20013;-73
2022/09/21 08:21:57;;;;;;;8.10;3.30;;;;;;;13.71;100.00;102605.97;5263682;28;20489;-72
2022/09/21 08:24:30;;;;;;;7.50;2.63;;;;;;;13.90;100.00;102616.06;5259471;28;20083;-72
2022/09/21 08:27:01;;;;;;;6.03;2.40;;;;;;;14.01;100.00;102613.50;5262116;28;20107;-73
2022/09/21 08:29:34;;;;;;;6.75;2.53;;;;;;;14.03;100.00;102603.72;5259508;28;20124;-74
2022/09/21 08:32:06;;;;;;;;;;;;;;;14.65;100.00;102613.31;5262039;28;20368;-72
2022/09/21 08:34:37;;;;;;;4.07;1.88;;;;;;;14.38;100.00;102615.31;5263604;28;19908;-72
2022/09/21 08:37:08;;;;;;;8.07;3.03;;;;;;;14.42;100.00;102622.88;5261151;28;20036;-72
2022/09/21 08:39:40;;;;;;;5.82;2.38;;;;;;;14.54;100.00;102615.88;5264678;28;20021;-72
2022/09/21 08:42:29;;;;;;;7.25;2.15;;;;;;;14.66;100.00;102615.00;5263125;28;20029;-73
2022/09/21 08:45:08;;;;;;;6.68;2.22;;;;;;;14.70;100.00;102610.31;5255092;28;20032;-73
2022/09/21 08:47:48;;;;;;;4.55;1.98;;;;;;;14.87;100.00;102612.56;5257927;28;20067;-76
2022/09/21 08:50:32;;;;;;;6.15;1.90;;;;;;;15.13;100.00;102613.22;5263192;28;20036;-75
2022/09/21 08:53:10;;;;;;;4.60;1.77;;;;;;;15.16;100.00;102620.94;5261206;28;20025;-72
2022/09/21 08:55:41;;;;;;;6.47;1.95;;;;;;;15.23;100.00;102614.22;5261324;28;20408;-74
2022/09/21 08:58:22;;;;;;;4.85;1.90;;;;;;;15.44;100.00;102617.00;5265775;28;20032;-72
2022/09/21 09:01:18;;;;;;;10.25;2.20;;;;;;;15.64;100.00;102628.66;5259630;28;20119;-73
2022/09/21 09:04:10;;;;;;;7.85;1.73;;;;;;;15.66;100.00;102613.56;5264907;28;20044;-72
2022/09/21 09:07:25;;;;;;;6.53;1.30;;;;;;;15.89;100.00;102616.19;5262984;28;20021;-72
2022/09/21 09:10:17;;;;;;;7.50;1.63;;;;;;;15.89;100.00;102613.56;5266285;28;20025;-73
2022/09/21 09:13:00;;;;;;;7.75;1.83;;;;;;;16.05;100.00;102619.28;5262965;28;20535;-73
2022/09/21 09:15:44;;;;;;;6.75;1.48;;;;;;;15.98;100.00;102621.59;5263839;28;20485;-73
2022/09/21 09:18:32;;;;;;;7.55;1.50;;;;;;;16.14;100.00;102610.66;5260745;28;20016;-76
2022/09/21 09:21:15;;;;;;;5.05;1.15;;;;;;;16.23;100.00;102614.34;5260986;28;20045;-76
2022/09/21 09:23:55;;;;;;;5.60;1.48;;;;;;;16.35;100.00;102617.78;5262214;28;20041;-73
2022/09/21 09:26:36;;;;;;;4.95;1.25;;;;;;;16.39;100.00;102619.22;5261552;28;20032;-73
2022/09/21 09:29:10;;;;;;;4.45;1.20;;;;;;;16.51;100.00;102618.22;5266776;28;20029;-73
2022/09/21 09:31:42;;;;;;;5.50;1.08;;;;;;;16.51;100.00;102621.69;5264801;28;20033;-73
2022/09/21 09:34:39;;;;;;;4.72;1.08;;;;;;;16.86;100.00;102627.72;5261431;28;20032;-73
2022/09/21 09:37:15;;;;;;;6.18;1.20;;;;;;;16.84;100.00;102621.75;5262498;28;20028;-72
2022/09/21 09:39:56;;;;;;;5.85;1.55;;;;;;;17.06;100.00;102624.28;5265345;28;20033;-75
2022/09/21 09:42:55;;;;;;;4.28;1.25;;;;;;;17.16;100.00;102622.53;5263051;28;20066;-73
2022/09/21 09:45:39;;;;;;;2.45;1.33;;;;;;;17.07;100.00;102625.94;5253214;28;20448;-73
2022/09/21 09:48:22;;;;;;;;;;;;;;;17.76;100.00;102622.69;5262632;28;20025;-73
2022/09/21 09:50:53;;;;;;;6.50;1.58;;;;;;;17.41;100.00;102617.78;5261713;28;19920;-73
2022/09/21 09:53:26;;;;;;;5.18;1.67;;;;;;;17.49;100.00;102628.56;5264560;28;20020;-76
2022/09/21 09:55:59;;;;;;;6.40;1.40;;;;;;;17.60;100.00;102624.97;5266504;28;20505;-74
2022/09/21 09:58:47;;;;;;;5.90;1.40;;;;;;;17.80;100.00;102621.47;5262703;28;20033;-73
2022/09/21 10:01:42;;;;;;;6.28;1.00;;;;;;;18.02;100.00;102620.41;5260223;28;20021;-74
2022/09/21 10:04:16;;;;;;;5.53;1.20;;;;;;;17.96;100.00;102620.97;5259262;28;20043;-74
2022/09/21 10:06:47;;;;;;;3.17;1.15;;;;;;;18.11;100.00;102622.28;5259706;28;20544;-72
2022/09/21 10:09:24;;;;;;;5.05;1.25;;;;;;;18.11;100.00;102616.97;5265663;28;20112;-75
2022/09/21 10:12:00;;;;;;;3.55;1.10;;;;;;;18.17;100.00;102626.19;5262787;28;20054;-72
2022/09/21 10:14:33;;;;;;;4.82;1.40;;;;;;;18.24;100.00;102624.66;5270483;28;20474;-73
2022/09/21 10:17:06;;;;;;;4.80;1.10;;;;;;;18.16;100.00;102620.03;5260192;28;20037;-72
2022/09/21 10:19:38;;;;;;;4.65;1.08;;;;;;;18.08;100.00;102617.25;5261293;28;20414;-72
2022/09/21 10:22:19;;;;;;;3.65;0.93;;;;;;;18.34;100.00;102606.13;5267119;28;20025;-76
2022/09/21 10:24:53;;;;;;;3.58;0.73;;;;;;;18.36;100.00;102615.59;5261574;28;20436;-74
2022/09/21 10:27:27;;;;;;;3.30;0.90;;;;;;;18.55;100.00;102616.59;5269448;28;20031;-72
2022/09/21 10:29:59;;;;;;;3.15;0.80;;;;;;;18.42;97.14;102614.22;5267291;28;20070;-72
2022/09/21 10:32:30;;;;;;;4.18;1.00;;;;;;;18.58;96.99;102611.00;5267588;28;20390;-75
2022/09/21 10:35:09;;;;;;;2.50;0.70;;;;;;;18.81;95.08;102603.63;5259716;28;20389;-72
2022/09/21 10:37:52;;;;;;;3.92;1.30;;;;;;;19.01;97.88;102610.56;5261165;28;20040;-72
2022/09/21 10:40:24;;;;;;;;;;;;;;;19.63;100.00;102605.69;5252841;28;20112;-72
2022/09/21 10:42:59;;;;;;;7.05;1.70;;;;;;;18.98;99.40;102607.38;5269356;28;19912;-75
2022/09/21 10:45:33;;;;;;;4.40;1.55;;;;;;;18.88;100.00;102604.75;5268302;28;20178;-73
2022/09/21 10:48:04;;;;;;;5.80;1.70;;;;;;;19.06;100.00;102604.84;5263578;28;20029;-72
2022/09/21 10:50:39;;;;;;;3.07;1.20;;;;;;;19.33;99.33;102591.63;5266355;28;20035;-74
2022/09/21 10:53:18;;;;;;;4.63;1.40;;;;;;;19.44;94.97;102591.44;5258102;28;20348;-75
2022/09/21 10:55:55;;;;;;;4.13;1.25;;;;;;;19.57;94.25;102593.78;5264463;28;20051;-76
2022/09/21 10:58:28;;;;;;;5.22;1.48;;;;;;;19.58;91.77;102600.75;5264436;28;20043;-74
2022/09/21 11:01:11;;;;;;;10.00;1.70;;;;;;;19.86;90.69;102588.34;5264941;28;20051;-73
2022/09/21 11:04:21;;;;;;;9.57;1.30;;;;;;;20.11;90.55;102591.25;5264910;28;20267;-73
2022/09/21 11:07:03;;;;;;;3.45;0.90;;;;;;;19.72;89.87;102588.00;5176097;28;20833;-72
2022/09/21 11:09:42;;;;;;;3.33;0.90;;;;;;;19.76;73.46;102590.22;5257332;28;20044;-72
2022/09/21 11:12:54;;;;;;;8.10;1.45;;;;;;;20.01;75.60;102596.66;5259042;28;20016;-72
2022/09/21 11:15:29;;;;;;;5.15;1.17;;;;;;;19.79;71.33;102589.91;5233998;28;20119;-76
2022/09/21 11:18:03;;;;;;;4.82;1.10;;;;;;;19.60;72.46;102596.13;5270637;28;20033;-77
2022/09/21 11:20:40;;;;;;;4.32;1.20;;;;;;;19.60;64.78;102590.81;5260679;28;20406;-73
2022/09/21 11:23:32;;;;;;;3.08;0.90;;;;;;;19.67;67.00;102591.94;5265533;28;20052;-72
2022/09/21 11:26:14;;;;;;;6.47;1.05;;;;;;;19.64;60.75;102586.91;5259582;28;20044;-76
2022/09/21 11:29:01;;;;;;;3.97;1.10;;;;;;;19.42;60.94;102588.09;5258219;28;20028;-73
2022/09/21 11:31:48;;;;;;;4.15;1.05;;;;;;;19.79;60.69;102584.59;5266817;28;20048;-73
2022/09/21 11:34:36;;;;;;;4.63;0.93;;;;;;;19.74;61.83;102583.38;5264340;28;20028;-73
2022/09/21 11:37:13;;;;;;;6.50;1.27;;;;;;;19.47;59.24;102587.66;5261852;28;20025;-76
2022/09/21 11:40:06;;;;;;;4.70;1.40;;;;;;;19.27;61.67;102589.53;5266935;28;20484;-73
2022/09/21 11:42:58;;;;;;;5.10;1.10;;;;;;;19.28;62.91;102583.25;5256963;28;20065;-76
2022/09/21 11:45:42;;;;;;;4.10;1.17;;;;;;;18.86;63.17;102580.13;5259909;28;20037;-73
2022/09/21 11:48:33;;;;;;;3.75;0.90;;;;;;;18.90;60.01;102573.53;5263552;28;20028;-73
2022/09/21 11:51:36;;;;;;;4.50;1.02;;;;;;;18.83;62.83;102575.97;5263393;28;20275;-75
2022/09/21 11:54:29;;;;;;;4.22;1.02;;;;;;;18.87;65.86;102577.34;5257748;28;20025;-74
2022/09/21 11:57:17;;;;;;;4.03;1.13;;;;;;;18.56;64.51;102574.00;5265877;28;20037;-73
2022/09/21 12:00:14;;;;;;;3.60;1.08;;;;;;;18.56;64.32;102579.31;5255850;28;20032;-75
2022/09/21 12:03:07;;;;;;;3.67;1.08;;;;;;;18.16;64.83;102577.59;5267899;28;20058;-74
2022/09/21 12:06:02;;;;;;;5.85;1.00;;;;;;;18.46;65.26;102573.16;5263833;28;20039;-73
2022/09/21 12:08:42;;;;;;;7.30;0.93;;;;;;;17.96;67.02;102567.94;5259817;28;20028;-73
2022/09/21 12:11:30;;;;;;;8.80;1.40;;;;;;;18.22;65.29;102566.44;5262688;28;20031;-75